Time;durP1;ratioP1;P1;durP2;ratioP2;P2;SDS_P1;SDS_P2;PMS_P1;PMS_P2;Temp;Humidity;BMP_temperature;BMP_pressure;BME280_temperature;BME280_humidity;BME280_pressure;Samples;Min_cycle;Max_cycle;Signal;HPM_P1;HPM_P2
2022/03/15 00:01:14;;;;;;;25.00;15.07;;;;;;;5.27;47.39;96322.47;5034331;28;20201;-77
2022/03/15 00:03:41;;;;;;;26.40;17.70;;;;;;;5.13;47.46;96301.94;5031148;28;20706;-77
2022/03/15 00:06:08;;;;;;;23.03;16.10;;;;;;;5.20;47.62;96321.09;5031375;28;20200;-79
2022/03/15 00:08:36;;;;;;;25.73;14.97;;;;;;;5.24;47.36;96321.78;5031234;28;20195;-76
2022/03/15 00:11:05;;;;;;;26.07;16.03;;;;;;;5.22;47.59;96326.94;5031410;28;20279;-77
2022/03/15 00:13:34;;;;;;;26.97;16.50;;;;;;;5.22;47.49;96332.00;5042393;28;20198;-78
2022/03/15 00:16:02;;;;;;;27.33;17.50;;;;;;;5.21;47.61;96330.34;5051462;28;20191;-76
2022/03/15 00:18:30;;;;;;;31.23;17.50;;;;;;;5.18;47.71;96327.09;5050682;28;20252;-77
2022/03/15 00:20:56;;;;;;;30.13;17.57;;;;;;;5.16;47.91;96321.28;5051314;28;20216;-79
2022/03/15 00:23:23;;;;;;;25.80;16.47;;;;;;;5.18;48.13;96322.03;5048851;28;20229;-81
2022/03/15 00:25:52;;;;;;;37.47;18.40;;;;;;;5.13;47.90;96317.16;5051087;28;20187;-82
2022/03/15 00:28:19;;;;;;;27.63;16.07;;;;;;;5.07;48.03;96302.22;5050644;28;20198;-79
2022/03/15 00:30:46;;;;;;;27.40;17.17;;;;;;;5.12;48.13;96318.03;5051081;28;20551;-81
2022/03/15 00:33:13;;;;;;;32.03;17.97;;;;;;;5.04;48.01;96292.19;5051465;28;20651;-78
2022/03/15 00:35:40;;;;;;;30.50;19.03;;;;;;;5.09;48.27;96299.59;5048483;28;20192;-75
2022/03/15 00:38:07;;;;;;;29.30;18.87;;;;;;;5.04;48.34;96297.25;5052199;28;20230;-76
2022/03/15 00:40:35;;;;;;;29.40;16.73;;;;;;;5.06;48.39;96304.81;5054466;28;20190;-83
2022/03/15 00:43:06;;;;;;;25.30;15.67;;;;;;;5.02;48.35;96299.03;5052353;28;20186;-85
2022/03/15 00:45:33;;;;;;;30.40;17.50;;;;;;;5.04;48.39;96308.22;5050517;28;20199;-81
2022/03/15 00:47:59;;;;;;;30.07;17.37;;;;;;;5.03;48.53;96306.56;5053754;28;20194;-84
2022/03/15 00:50:29;;;;;;;28.23;16.73;;;;;;;5.03;48.62;96314.19;5051943;28;20187;-85
2022/03/15 00:52:57;;;;;;;23.20;15.37;;;;;;;4.97;48.59;96299.25;5051513;28;20203;-84
2022/03/15 00:55:23;;;;;;;31.37;17.67;;;;;;;4.99;48.65;96294.91;5048770;28;20230;-85
2022/03/15 00:57:50;;;;;;;27.77;17.50;;;;;;;4.98;48.80;96284.84;5052012;28;20566;-85
2022/03/15 01:00:20;;;;;;;28.17;16.63;;;;;;;4.96;48.95;96295.03;5051296;28;20205;-81
2022/03/15 01:02:48;;;;;;;31.23;17.40;;;;;;;4.95;48.90;96282.44;5051853;28;20670;-84
2022/03/15 01:05:14;;;;;;;26.83;16.50;;;;;;;4.93;48.72;96285.03;5053060;28;20215;-84
2022/03/15 01:07:41;;;;;;;28.10;16.23;;;;;;;4.89;48.91;96275.09;5032170;28;20199;-86
2022/03/15 01:10:09;;;;;;;29.17;18.03;;;;;;;4.91;48.90;96275.84;5031067;28;20191;-80
2022/03/15 01:12:36;;;;;;;29.40;16.13;;;;;;;4.84;48.93;96271.94;5033136;28;20213;-85
2022/03/15 01:15:03;;;;;;;27.70;16.30;;;;;;;4.88;48.90;96288.63;5035374;28;20202;-77
2022/03/15 01:17:31;;;;;;;27.03;16.27;;;;;;;4.87;48.95;96284.47;5035719;28;20194;-78
2022/03/15 01:19:58;;;;;;;28.40;17.03;;;;;;;4.86;49.04;96282.81;5035415;28;20190;-85
2022/03/15 01:22:25;;;;;;;31.03;17.47;;;;;;;4.85;49.04;96283.72;5034653;28;20203;-87
2022/03/15 01:24:52;;;;;;;29.80;16.27;;;;;;;4.82;49.09;96273.69;5036226;28;20223;-87
2022/03/15 01:27:19;;;;;;;26.47;16.23;;;;;;;4.82;49.19;96276.22;5036080;28;20188;-85
2022/03/15 01:29:46;;;;;;;31.07;17.23;;;;;;;4.77;49.39;96274.72;5034386;28;20553;-85
2022/03/15 01:32:13;;;;;;;25.33;16.17;;;;;;;4.78;49.46;96289.03;5034466;28;20196;-85
2022/03/15 01:34:41;;;;;;;28.00;16.00;;;;;;;4.76;49.41;96293.34;5045921;28;20187;-87
2022/03/15 01:37:08;;;;;;;29.63;17.63;;;;;;;4.69;49.29;96281.78;5054866;28;20231;-82
2022/03/15 01:39:36;;;;;;;28.93;17.23;;;;;;;4.74;49.47;96292.56;5058221;28;20217;-88
2022/03/15 01:42:04;;;;;;;26.27;16.43;;;;;;;4.72;49.40;96294.34;5055713;28;20226;-87
2022/03/15 01:44:33;;;;;;;29.07;16.33;;;;;;;4.71;49.57;96300.31;5037969;28;20269;-89
2022/03/15 01:47:00;;;;;;;28.77;17.00;;;;;;;4.68;49.68;96297.06;5054616;28;20282;-84
2022/03/15 01:49:27;;;;;;;27.03;16.70;;;;;;;4.62;49.69;96288.03;5043861;28;20194;-85
2022/03/15 01:51:55;;;;;;;28.13;15.87;;;;;;;4.65;50.00;96299.72;5035073;28;20554;-88
2022/03/15 01:54:22;;;;;;;26.00;16.90;;;;;;;4.64;49.95;96306.50;5035738;28;20187;-88
2022/03/15 01:56:49;;;;;;;30.80;16.37;;;;;;;4.63;50.07;96314.19;5034942;28;20304;-86
2022/03/15 01:59:17;;;;;;;25.43;15.97;;;;;;;4.62;50.20;96320.97;5036243;28;20696;-83
2022/03/15 02:01:46;;;;;;;26.87;15.53;;;;;;;4.61;50.07;96315.94;5053882;28;20222;-88
2022/03/15 02:04:15;;;;;;;27.23;15.30;;;;;;;4.57;50.13;96312.69;5055405;28;20325;-87
2022/03/15 02:06:44;;;;;;;26.60;15.40;;;;;;;4.57;49.96;96299.22;5055514;28;20195;-85
2022/03/15 02:09:14;;;;;;;24.37;14.60;;;;;;;4.55;50.29;96290.84;5055163;28;20188;-83
2022/03/15 02:11:42;;;;;;;25.33;14.13;;;;;;;4.49;50.19;96290.22;5041136;28;20195;-88
2022/03/15 02:14:09;;;;;;;26.37;15.53;;;;;;;4.54;49.89;96302.72;5056804;28;20195;-83
2022/03/15 02:16:36;;;;;;;26.17;16.07;;;;;;;4.49;50.12;96291.91;5053727;28;20771;-84
2022/03/15 02:19:05;;;;;;;27.60;16.10;;;;;;;4.52;50.15;96291.78;5054097;28;20194;-83
2022/03/15 02:21:36;;;;;;;27.67;15.07;;;;;;;4.36;50.13;96265.41;5052679;28;20197;-77
2022/03/15 02:24:04;;;;;;;26.77;15.53;;;;;;;4.48;50.30;96287.72;5053011;28;20207;-85
2022/03/15 02:26:31;;;;;;;23.33;14.73;;;;;;;4.47;50.18;96275.97;5054493;28;20187;-81
2022/03/15 02:28:58;;;;;;;23.83;14.10;;;;;;;4.44;50.35;96269.28;5055057;28;20194;-84
2022/03/15 02:31:25;;;;;;;25.63;14.93;;;;;;;4.44;50.27;96271.81;5052119;28;20713;-84
2022/03/15 02:33:52;;;;;;;23.83;14.67;;;;;;;4.43;50.34;96270.19;5053923;28;20191;-87
2022/03/15 02:36:19;;;;;;;26.43;14.73;;;;;;;4.37;50.25;96255.25;5054419;28;20241;-87
2022/03/15 02:38:47;;;;;;;28.03;16.97;;;;;;;4.40;50.36;96260.16;5054387;28;20191;-89
2022/03/15 02:41:15;;;;;;;25.67;16.03;;;;;;;4.39;50.28;96258.53;5053061;28;20270;-79
2022/03/15 02:43:43;;;;;;;26.13;15.17;;;;;;;4.40;50.49;96272.00;5051585;28;20195;-88
2022/03/15 02:46:10;;;;;;;24.43;14.93;;;;;;;4.35;50.29;96263.78;5053586;28;20910;-86
2022/03/15 02:48:37;;;;;;;24.80;15.50;;;;;;;4.37;50.57;96270.44;5054742;28;20199;-76
2022/03/15 02:51:07;;;;;;;23.03;15.33;;;;;;;4.36;50.61;96273.88;5053154;28;20195;-83
2022/03/15 02:53:34;;;;;;;23.63;14.47;;;;;;;4.36;50.77;96278.09;5052682;28;20195;-77
2022/03/15 02:56:03;;;;;;;24.47;15.57;;;;;;;4.34;50.83;96279.88;5052459;28;20203;-78
2022/03/15 02:58:29;;;;;;;25.93;15.20;;;;;;;4.33;50.84;96283.28;5052324;28;20240;-79
2022/03/15 03:00:56;;;;;;;26.03;14.60;;;;;;;4.31;50.76;96280.78;5052262;28;20681;-76
2022/03/15 03:03:23;;;;;;;21.77;13.77;;;;;;;4.22;51.00;96266.78;5052661;28;20187;-79
2022/03/15 03:05:50;;;;;;;24.23;13.83;;;;;;;4.28;50.83;96270.81;5051755;28;20280;-77
2022/03/15 03:08:17;;;;;;;23.80;14.03;;;;;;;4.27;50.91;96264.94;5052328;28;20193;-78
2022/03/15 03:10:44;;;;;;;23.37;14.43;;;;;;;4.26;51.07;96265.78;5052016;28;20253;-77
2022/03/15 03:13:13;;;;;;;21.60;13.17;;;;;;;4.23;50.82;96265.94;5052198;28;20195;-76
2022/03/15 03:15:40;;;;;;;23.00;14.27;;;;;;;4.24;50.58;96270.09;5051724;28;20191;-77
2022/03/15 03:18:08;;;;;;;21.17;13.13;;;;;;;4.22;50.62;96273.56;5051976;28;20241;-77
2022/03/15 03:20:35;;;;;;;19.17;13.10;;;;;;;4.22;50.71;96254.13;5047747;28;20575;-78
2022/03/15 03:23:02;;;;;;;24.83;13.87;;;;;;;4.20;50.77;96253.38;5031792;28;20218;-75
2022/03/15 03:25:30;;;;;;;19.77;12.27;;;;;;;4.20;50.81;96252.56;5032070;28;20227;-77
2022/03/15 03:27:58;;;;;;;20.00;13.67;;;;;;;4.18;50.96;96250.06;5031777;28;20195;-77
2022/03/15 03:30:27;;;;;;;20.97;12.67;;;;;;;4.18;50.80;96247.53;5032114;28;20703;-84
2022/03/15 03:32:54;;;;;;;19.67;12.10;;;;;;;4.16;50.83;96251.03;5032178;28;20271;-83
2022/03/15 03:35:21;;;;;;;18.57;11.50;;;;;;;4.08;50.65;96227.72;5032021;28;20195;-82
2022/03/15 03:37:48;;;;;;;21.33;12.57;;;;;;;4.13;50.72;96251.16;5032055;28;20227;-82
2022/03/15 03:40:15;;;;;;;18.43;11.50;;;;;;;3.99;50.65;96234.78;5033483;28;20188;-90
2022/03/15 03:42:42;;;;;;;22.50;12.73;;;;;;;4.05;50.72;96250.63;5032563;28;20180;-77
2022/03/15 03:45:09;;;;;;;20.13;11.97;;;;;;;4.06;50.85;96249.72;5034523;28;20669;-79
2022/03/15 03:47:38;;;;;;;22.00;12.77;;;;;;;4.07;50.73;96254.75;5039282;28;20184;-77
2022/03/15 03:50:09;;;;;;;20.30;11.83;;;;;;;4.06;50.73;96259.84;5039100;28;20203;-83
2022/03/15 03:52:36;;;;;;;17.77;12.23;;;;;;;4.06;50.67;96264.91;5032123;28;20195;-86
2022/03/15 03:55:04;;;;;;;19.57;12.33;;;;;;;3.99;50.56;96264.34;5032445;28;20184;-80
2022/03/15 03:57:30;;;;;;;21.80;11.33;;;;;;;4.01;50.59;96272.69;5031915;28;20263;-80
2022/03/15 03:59:57;;;;;;;18.87;12.53;;;;;;;4.01;50.46;96282.81;5033603;28;20199;-81
2022/03/15 04:02:25;;;;;;;19.90;11.50;;;;;;;3.95;50.52;96278.00;5051244;28;20194;-81
2022/03/15 04:04:54;;;;;;;17.90;11.13;;;;;;;3.97;50.58;96288.88;5051411;28;20290;-80
2022/03/15 04:07:21;;;;;;;20.03;12.30;;;;;;;3.93;50.64;96298.31;5052296;28;20222;-77
2022/03/15 04:09:48;;;;;;;22.23;12.63;;;;;;;3.94;50.70;96297.44;5051201;28;20214;-76
2022/03/15 04:12:19;;;;;;;20.47;12.73;;;;;;;3.90;50.67;96298.41;5051903;28;20187;-78
2022/03/15 04:14:46;;;;;;;25.90;13.97;;;;;;;3.89;50.86;96301.03;5051789;28;20207;-83
2022/03/15 04:17:14;;;;;;;21.93;13.57;;;;;;;3.86;50.62;96294.34;5052226;28;20255;-80
2022/03/15 04:19:41;;;;;;;24.33;15.37;;;;;;;3.87;50.76;96303.59;5049407;28;20207;-79
2022/03/15 04:22:09;;;;;;;27.90;15.77;;;;;;;3.88;50.90;96307.75;5033885;28;20191;-74
2022/03/15 04:24:36;;;;;;;28.53;15.70;;;;;;;3.86;50.99;96301.94;5033071;28;20318;-80
2022/03/15 04:27:04;;;;;;;26.13;16.10;;;;;;;3.80;50.97;96297.13;5031744;28;20187;-77
2022/03/15 04:29:31;;;;;;;29.80;16.03;;;;;;;3.85;51.02;96319.72;5030716;28;20269;-82
2022/03/15 04:31:58;;;;;;;29.80;16.70;;;;;;;3.85;51.05;96317.19;5030833;28;20215;-78
2022/03/15 04:34:25;;;;;;;30.43;17.67;;;;;;;3.85;51.03;96317.19;5031548;28;20184;-76
2022/03/15 04:36:52;;;;;;;30.30;18.17;;;;;;;3.81;51.15;96311.41;5031312;28;20223;-76
2022/03/15 04:39:20;;;;;;;33.90;19.07;;;;;;;3.82;51.15;96309.72;5031446;28;20184;-76
2022/03/15 04:41:47;;;;;;;34.03;18.30;;;;;;;3.83;50.99;96314.69;5031141;28;20203;-76
2022/03/15 04:44:14;;;;;;;32.10;19.27;;;;;;;3.76;51.12;96305.72;5030854;28;20618;-77
2022/03/15 04:46:41;;;;;;;31.90;19.30;;;;;;;3.83;51.20;96319.75;5031648;28;20215;-78
2022/03/15 04:49:07;;;;;;;32.87;18.77;;;;;;;3.85;51.09;96312.97;5032706;28;20187;-76
2022/03/15 04:51:34;;;;;;;33.87;18.50;;;;;;;3.87;51.27;96311.19;5032699;28;20195;-77
2022/03/15 04:54:02;;;;;;;29.97;18.53;;;;;;;3.77;50.95;96287.09;5030719;28;20187;-76
2022/03/15 04:56:30;;;;;;;31.53;17.67;;;;;;;3.92;50.95;96305.94;5030374;28;20188;-79
2022/03/15 04:58:57;;;;;;;28.40;17.07;;;;;;;3.95;50.68;96306.66;5030402;28;20198;-79
2022/03/15 05:01:24;;;;;;;33.20;18.47;;;;;;;3.86;50.87;96291.00;5048509;28;20753;-78
2022/03/15 05:03:51;;;;;;;30.33;18.20;;;;;;;4.05;50.71;96308.84;5050079;28;20241;-78
2022/03/15 05:06:18;;;;;;;31.80;18.73;;;;;;;4.08;50.76;96308.72;5049924;28;20222;-78
2022/03/15 05:08:45;;;;;;;30.40;16.93;;;;;;;4.18;50.66;96318.44;5050130;28;20198;-78
2022/03/15 05:11:11;;;;;;;27.20;17.63;;;;;;;4.27;50.69;96307.13;5049843;28;20677;-75
2022/03/15 05:13:42;;;;;;;30.80;18.87;;;;;;;4.48;50.05;96328.25;5050220;28;20244;-78
2022/03/15 05:16:12;;;;;;;26.27;16.30;;;;;;;4.76;50.09;96331.34;5035275;28;20214;-79
2022/03/15 05:18:40;;;;;;;33.37;17.10;;;;;;;5.07;49.62;96325.03;5027711;28;20282;-76
2022/03/15 05:21:07;;;;;;;30.40;17.93;;;;;;;5.38;49.48;96324.56;5032040;28;20281;-78
2022/03/15 05:23:35;;;;;;;30.43;16.80;;;;;;;5.73;49.36;96325.53;5037251;28;20256;-81
2022/03/15 05:26:01;;;;;;;25.60;17.13;;;;;;;6.25;48.99;96320.69;5028082;28;20226;-82
2022/03/15 05:28:28;;;;;;;33.57;18.17;;;;;;;6.82;48.93;96317.16;5027191;28;20196;-80
2022/03/15 05:30:57;;;;;;;29.50;17.23;;;;;;;7.41;48.70;96323.53;5027782;28;20223;-79
2022/03/15 05:33:23;;;;;;;37.47;18.57;;;;;;;8.04;48.49;96319.38;5028463;28;20183;-79
2022/03/15 05:35:50;;;;;;;25.37;16.30;;;;;;;8.73;48.02;96327.56;5033126;28;20184;-84
2022/03/15 05:38:18;;;;;;;27.87;16.10;;;;;;;9.27;47.27;96321.00;5011433;28;20202;-83
2022/03/15 05:40:44;;;;;;;29.50;16.90;;;;;;;9.71;46.91;96314.16;5028886;28;20612;-84
2022/03/15 05:43:11;;;;;;;27.87;17.33;;;;;;;10.11;46.31;96316.88;5030985;28;20203;-81
2022/03/15 05:45:38;;;;;;;27.03;17.07;;;;;;;10.52;45.57;96315.13;5032054;28;20218;-82
2022/03/15 05:48:07;;;;;;;25.07;17.17;;;;;;;10.98;44.71;96314.72;5041253;28;20674;-82
2022/03/15 05:50:34;;;;;;;25.13;17.10;;;;;;;11.47;43.88;96308.91;5047583;28;20191;-83
2022/03/15 05:53:03;;;;;;;33.10;17.07;;;;;;;11.98;42.98;96305.50;5045837;28;20532;-80
2022/03/15 05:55:30;;;;;;;29.33;17.43;;;;;;;12.51;42.49;96321.41;5046273;28;20298;-80
2022/03/15 05:57:57;;;;;;;24.10;16.73;;;;;;;12.90;42.04;96324.63;5046990;28;20194;-79
2022/03/15 06:00:24;;;;;;;28.50;18.00;;;;;;;13.29;41.28;96318.31;5049383;28;20252;-81
2022/03/15 06:02:51;;;;;;;27.13;17.80;;;;;;;13.77;40.17;96307.84;5049272;28;20183;-76
2022/03/15 06:05:20;;;;;;;26.17;17.30;;;;;;;14.28;39.78;96302.97;5049505;28;20211;-81
2022/03/15 06:07:48;;;;;;;31.13;19.43;;;;;;;14.92;39.28;96319.41;5030551;28;20632;-77
2022/03/15 06:10:16;;;;;;;30.10;18.63;;;;;;;15.56;38.43;96327.84;5031031;28;20188;-82
2022/03/15 06:12:43;;;;;;;30.70;19.30;;;;;;;16.19;37.63;96342.34;5030782;28;20283;-78
2022/03/15 06:15:11;;;;;;;23.53;18.17;;;;;;;16.82;36.78;96336.94;5030238;28;20261;-79
2022/03/15 06:17:45;;;;;;;30.93;18.87;;;;;;;17.47;35.96;96340.53;5043126;28;20199;-77
2022/03/15 06:20:14;;;;;;;24.67;17.93;;;;;;;18.09;35.26;96340.91;5045818;28;20202;-77
2022/03/15 06:22:43;;;;;;;27.77;18.67;;;;;;;18.66;34.40;96338.97;5046997;28;20196;-80
2022/03/15 06:25:10;;;;;;;33.70;20.27;;;;;;;19.22;33.87;96333.47;5048563;28;20222;-75
2022/03/15 06:27:37;;;;;;;28.23;19.73;;;;;;;19.75;33.13;96334.34;5049114;28;20218;-80
2022/03/15 06:30:05;;;;;;;24.40;18.03;;;;;;;20.29;32.22;96342.69;5049294;28;20195;-84
2022/03/15 06:32:32;;;;;;;23.90;17.50;;;;;;;20.83;31.66;96335.38;5047684;28;20191;-84
2022/03/15 06:34:59;;;;;;;23.90;17.03;;;;;;;21.34;30.98;96335.25;5051473;28;20210;-82
2022/03/15 06:37:27;;;;;;;22.03;15.97;;;;;;;21.87;30.34;96346.88;5051074;28;20223;-82
2022/03/15 06:39:56;;;;;;;26.17;15.53;;;;;;;22.36;29.66;96341.50;5052023;28;20281;-80
2022/03/15 06:42:23;;;;;;;24.23;15.88;;;;;;;22.84;28.90;96350.88;5050944;28;20205;-81
2022/03/15 06:44:50;;;;;;;19.35;14.18;;;;;;;23.30;28.58;96345.63;5047880;28;20194;-82
2022/03/15 06:47:17;;;;;;;22.35;14.30;;;;;;;23.72;28.07;96349.53;5051329;28;20226;-83
2022/03/15 06:49:44;;;;;;;19.08;15.27;;;;;;;24.06;27.41;96332.50;5051936;28;20189;-83
2022/03/15 06:52:11;;;;;;;16.08;13.30;;;;;;;24.48;26.99;96342.28;5051407;28;20206;-88
2022/03/15 06:54:38;;;;;;;19.88;14.48;;;;;;;24.87;26.71;96339.31;5049653;28;20187;-86
2022/03/15 06:57:07;;;;;;;18.42;14.23;;;;;;;25.23;26.25;96348.94;5049792;28;20214;-89
2022/03/15 06:59:34;;;;;;;16.33;14.23;;;;;;;25.53;25.78;96345.13;5049486;28;20194;-88
2022/03/15 07:02:01;;;;;;;21.65;15.77;;;;;;;25.83;25.61;96347.59;5048403;28;20199;-82
2022/03/15 07:04:27;;;;;;;20.58;15.32;;;;;;;26.10;25.36;96351.16;5051474;28;20195;-80
2022/03/15 07:06:54;;;;;;;22.40;16.05;;;;;;;26.37;24.88;96349.47;5051013;28;20211;-80
2022/03/15 07:09:21;;;;;;;20.70;14.90;;;;;;;26.63;24.25;96350.59;5053214;28;20198;-80
2022/03/15 07:11:48;;;;;;;21.90;14.88;;;;;;;26.89;23.94;96362.97;5050926;28;20198;-81
2022/03/15 07:14:16;;;;;;;20.65;15.13;;;;;;;27.13;23.79;96354.56;5050737;28;20187;-82
2022/03/15 07:16:43;;;;;;;18.52;14.35;;;;;;;27.33;23.75;96351.13;5047352;28;20214;-74
2022/03/15 07:19:10;;;;;;;19.30;14.57;;;;;;;27.49;23.80;96353.38;5047898;28;20187;-80
2022/03/15 07:21:37;;;;;;;17.80;13.93;;;;;;;27.68;23.12;96354.38;5047451;28;20187;-76
2022/03/15 07:24:04;;;;;;;23.13;14.40;;;;;;;27.83;23.02;96347.09;5048295;28;20195;-82
2022/03/15 07:26:31;;;;;;;21.70;15.25;;;;;;;27.95;22.87;96344.66;5048125;28;20222;-78
2022/03/15 07:28:58;;;;;;;22.50;14.65;;;;;;;28.09;23.06;96354.13;5048049;28;20202;-79
2022/03/15 07:31:26;;;;;;;20.20;15.02;;;;;;;28.23;23.03;96352.25;5047735;28;20195;-80
2022/03/15 07:33:53;;;;;;;20.42;14.02;;;;;;;28.33;22.35;96357.09;5045316;28;20195;-79
2022/03/15 07:36:21;;;;;;;9.80;8.07;;;;;;;28.35;24.52;96355.03;5047481;28;20215;-80
2022/03/15 07:38:48;;;;;;;10.05;7.75;;;;;;;28.29;27.15;96353.25;5045971;28;20282;-77
2022/03/15 07:41:16;;;;;;;11.07;8.07;;;;;;;28.20;27.68;96358.75;5045448;28;20191;-78
2022/03/15 07:43:44;;;;;;;11.25;9.27;;;;;;;28.13;27.78;96359.78;5046476;28;20195;-78
2022/03/15 07:46:11;;;;;;;17.58;10.80;;;;;;;28.01;25.12;96351.69;5047659;28;20414;-77
2022/03/15 07:48:39;;;;;;;17.08;11.20;;;;;;;27.89;25.97;96345.44;5047263;28;20179;-74
2022/03/15 07:51:06;;;;;;;21.50;11.52;;;;;;;27.81;26.33;96350.94;5046112;28;20621;-77
2022/03/15 07:53:32;;;;;;;12.38;10.18;;;;;;;27.72;26.63;96347.69;5046723;28;20190;-77
2022/03/15 07:56:00;;;;;;;14.15;10.30;;;;;;;27.61;26.16;96341.22;5045089;28;20187;-80
2022/03/15 07:58:27;;;;;;;12.38;9.80;;;;;;;27.58;26.31;96349.50;5048350;28;20207;-83
2022/03/15 08:00:56;;;;;;;14.27;9.63;;;;;;;27.55;26.68;96343.84;5045876;28;20653;-79
2022/03/15 08:03:23;;;;;;;16.98;10.70;;;;;;;27.50;27.06;96337.41;5047237;28;20199;-80
2022/03/15 08:05:52;;;;;;;17.42;10.10;;;;;;;27.47;27.02;96339.63;5045104;28;20610;-79
2022/03/15 08:08:19;;;;;;;15.18;11.07;;;;;;;27.44;27.23;96335.56;5046199;28;20179;-76
2022/03/15 08:10:46;;;;;;;14.77;10.93;;;;;;;27.40;27.05;96333.56;5046695;28;20210;-82
2022/03/15 08:13:13;;;;;;;12.95;10.52;;;;;;;27.36;26.71;96341.03;5048030;28;20222;-77
2022/03/15 08:15:41;;;;;;;24.17;13.43;;;;;;;27.29;26.31;96324.47;5046797;28;20581;-78
2022/03/15 08:18:08;;;;;;;19.92;14.90;;;;;;;27.26;25.29;96325.69;5045934;28;20218;-78
2022/03/15 08:20:35;;;;;;;19.95;14.18;;;;;;;27.21;23.90;96332.56;5049125;28;20191;-77
2022/03/15 08:23:04;;;;;;;27.50;15.00;;;;;;;27.14;23.05;96327.28;5049337;28;20210;-76
2022/03/15 08:25:30;;;;;;;24.20;15.43;;;;;;;27.12;22.70;96325.88;5046795;28;20191;-74
2022/03/15 08:28:00;;;;;;;21.85;14.45;;;;;;;27.06;22.64;96327.44;5049817;28;20206;-76
2022/03/15 08:30:27;;;;;;;23.30;14.90;;;;;;;27.02;22.74;96329.66;5047177;28;20206;-80
2022/03/15 08:32:54;;;;;;;20.40;15.32;;;;;;;26.94;22.52;96323.78;5048583;28;20200;-79
2022/03/15 08:35:22;;;;;;;24.33;15.07;;;;;;;26.91;22.54;96325.03;5045191;28;20197;-79
2022/03/15 08:37:50;;;;;;;21.98;14.82;;;;;;;26.85;22.57;96317.94;5049204;28;20281;-75
2022/03/15 08:40:18;;;;;;;24.23;14.95;;;;;;;26.80;22.35;96319.53;5050934;28;20195;-76
2022/03/15 08:42:45;;;;;;;16.60;14.27;;;;;;;26.70;22.56;96318.13;5049645;28;20195;-76
2022/03/15 08:45:12;;;;;;;19.98;14.07;;;;;;;26.60;22.32;96311.63;5047840;28;20563;-75
2022/03/15 08:47:40;;;;;;;21.00;13.65;;;;;;;26.50;22.59;96319.88;5045063;28;20237;-78
2022/03/15 08:50:09;;;;;;;20.25;14.68;;;;;;;26.38;22.48;96301.25;5049100;28;20194;-76
2022/03/15 08:52:36;;;;;;;19.90;14.07;;;;;;;26.21;22.72;96292.91;5047325;28;20649;-73
2022/03/15 08:55:05;;;;;;;21.90;14.40;;;;;;;26.09;22.31;96302.34;5049476;28;20195;-73
2022/03/15 08:57:33;;;;;;;17.77;13.95;;;;;;;25.97;22.64;96301.28;5049074;28;20716;-79
2022/03/15 09:00:00;;;;;;;20.70;15.20;;;;;;;25.82;22.47;96296.16;5048980;28;20210;-75
2022/03/15 09:02:26;;;;;;;21.70;14.82;;;;;;;25.67;22.66;96295.44;5048844;28;20201;-75
2022/03/15 09:04:53;;;;;;;20.65;15.48;;;;;;;25.56;22.74;96293.34;5047517;28;20690;-76
2022/03/15 09:07:20;;;;;;;24.25;16.65;;;;;;;25.40;22.78;96294.47;5048604;28;20226;-74
2022/03/15 09:09:47;;;;;;;30.25;17.20;;;;;;;25.22;22.97;96292.31;5048662;28;20248;-74
2022/03/15 09:12:16;;;;;;;25.75;17.70;;;;;;;25.06;23.14;96287.31;5049386;28;20287;-74
2022/03/15 09:14:44;;;;;;;21.10;17.17;;;;;;;24.91;23.06;96282.13;5048850;28;20186;-74
2022/03/15 09:17:12;;;;;;;25.92;17.88;;;;;;;24.72;23.10;96279.16;5048261;28;20762;-76
2022/03/15 09:19:40;;;;;;;27.25;18.48;;;;;;;24.55;23.17;96280.41;5049053;28;20248;-76
2022/03/15 09:22:07;;;;;;;34.22;18.38;;;;;;;24.36;23.35;96273.94;5048816;28;20289;-74
2022/03/15 09:24:35;;;;;;;24.30;18.60;;;;;;;24.19;23.48;96267.31;5047927;28;20194;-76
2022/03/15 09:27:02;;;;;;;28.52;18.88;;;;;;;23.99;23.67;96265.25;5048558;28;20218;-73
2022/03/15 09:29:29;;;;;;;32.30;20.30;;;;;;;23.75;23.71;96257.75;5048587;28;20199;-74
2022/03/15 09:31:57;;;;;;;25.45;19.40;;;;;;;23.57;23.78;96263.28;5048825;28;20272;-76
2022/03/15 09:34:26;;;;;;;30.85;18.95;;;;;;;23.39;23.84;96265.44;5047972;28;20191;-73
2022/03/15 09:36:53;;;;;;;29.98;20.40;;;;;;;23.16;24.00;96261.09;5050953;28;20215;-74
2022/03/15 09:39:20;;;;;;;23.92;18.42;;;;;;;22.94;24.27;96256.72;5049997;28;20187;-74
2022/03/15 09:41:50;;;;;;;28.27;19.85;;;;;;;22.67;24.35;96243.22;5050832;28;20206;-74
2022/03/15 09:44:19;;;;;;;34.78;17.65;;;;;;;22.45;24.42;96251.81;5047449;28;20236;-75
2022/03/15 09:46:50;;;;;;;33.20;19.98;;;;;;;22.17;24.41;96247.09;5052598;28;20708;-75
2022/03/15 09:49:20;;;;;;;28.55;17.35;;;;;;;21.94;24.29;96248.84;5052034;28;20218;-73
2022/03/15 09:51:47;;;;;;;25.43;17.83;;;;;;;21.70;24.44;96241.94;5052635;28;20176;-76
2022/03/15 09:54:15;;;;;;;26.85;17.23;;;;;;;21.46;24.52;96240.19;5052418;28;20210;-74
2022/03/15 09:56:43;;;;;;;27.93;18.90;;;;;;;21.25;24.58;96238.94;5053131;28;20201;-76
2022/03/15 09:59:14;;;;;;;30.07;17.43;;;;;;;21.02;24.82;96228.38;5047553;28;20187;-73
2022/03/15 10:01:42;;;;;;;23.40;17.27;;;;;;;20.87;24.80;96237.03;5052378;28;20671;-78
2022/03/15 10:04:09;;;;;;;26.07;17.00;;;;;;;20.70;25.00;96231.03;5051036;28;20728;-74
2022/03/15 10:06:38;;;;;;;27.50;16.80;;;;;;;20.52;25.27;96221.59;5052607;28;20621;-73
2022/03/15 10:09:05;;;;;;;22.67;17.50;;;;;;;20.36;25.13;96218.94;5051821;28;20195;-72
2022/03/15 10:11:32;;;;;;;28.77;17.83;;;;;;;20.26;25.16;96215.69;5052422;28;20213;-74
2022/03/15 10:13:59;;;;;;;19.97;15.37;;;;;;;20.12;25.23;96213.69;5052895;28;20199;-73
2022/03/15 10:16:30;;;;;;;22.67;15.80;;;;;;;19.99;25.33;96207.22;5052277;28;20191;-73
2022/03/15 10:18:58;;;;;;;25.00;15.47;;;;;;;19.86;25.37;96206.00;5049580;28;20600;-74
2022/03/15 10:21:26;;;;;;;26.33;15.67;;;;;;;19.75;25.46;96207.94;5048858;28;20433;-72
2022/03/15 10:23:55;;;;;;;23.23;16.80;;;;;;;19.66;25.51;96197.69;5047566;28;20638;-73
2022/03/15 10:26:24;;;;;;;24.30;16.87;;;;;;;19.55;25.75;96189.16;5050858;28;20198;-74
2022/03/15 10:28:53;;;;;;;24.37;16.33;;;;;;;19.47;25.83;96189.16;5052212;28;20219;-77
2022/03/15 10:31:22;;;;;;;28.10;16.50;;;;;;;19.38;25.72;96192.66;5051479;28;20199;-77
2022/03/15 10:33:51;;;;;;;23.40;15.40;;;;;;;19.29;25.69;96184.03;5050849;28;20209;-73
2022/03/15 10:36:19;;;;;;;21.00;14.60;;;;;;;19.22;25.72;96182.22;5051279;28;20245;-75
2022/03/15 10:38:47;;;;;;;19.17;14.03;;;;;;;19.15;25.71;96173.41;5051454;28;20202;-73
2022/03/15 10:41:17;;;;;;;19.53;13.27;;;;;;;19.09;25.67;96166.28;5051696;28;20198;-74
2022/03/15 10:43:44;;;;;;;21.50;12.43;;;;;;;19.01;25.64;96157.47;5050853;28;20697;-74
2022/03/15 10:46:13;;;;;;;22.00;13.80;;;;;;;18.99;25.61;96153.38;5050376;28;20222;-76
2022/03/15 10:48:40;;;;;;;19.57;13.40;;;;;;;18.94;25.48;96156.44;5052330;28;20191;-83
2022/03/15 10:51:10;;;;;;;20.17;12.13;;;;;;;18.88;25.38;96151.88;5048194;28;20195;-76
2022/03/15 10:53:39;;;;;;;18.90;12.30;;;;;;;18.82;25.33;96143.88;5051666;28;20203;-76
2022/03/15 10:56:13;;;;;;;17.20;10.47;;;;;;;18.75;25.39;96141.13;5046898;28;20397;-73
2022/03/15 10:58:53;;;;;;;13.57;10.13;;;;;;;18.67;25.12;96144.44;5051389;28;20246;-73
2022/03/15 11:01:21;;;;;;;16.17;9.87;;;;;;;18.63;25.07;96140.50;5051064;28;20202;-73
2022/03/15 11:03:55;;;;;;;14.57;9.17;;;;;;;18.59;24.88;96134.00;5050812;28;20195;-78
2022/03/15 11:06:30;;;;;;;13.57;9.33;;;;;;;18.54;25.06;96133.66;5048627;28;20206;-80
2022/03/15 11:08:57;;;;;;;11.53;8.77;;;;;;;18.49;24.96;96128.94;5051138;28;20703;-73
2022/03/15 11:11:26;;;;;;;10.87;7.90;;;;;;;18.45;24.88;96124.19;5050852;28;20233;-75
2022/03/15 11:14:02;;;;;;;15.80;7.97;;;;;;;18.39;24.83;96109.25;5051062;28;20685;-74
2022/03/15 11:16:32;;;;;;;13.70;7.57;;;;;;;18.34;24.97;96106.28;5048909;28;20236;-75
2022/03/15 11:19:00;;;;;;;11.70;7.40;;;;;;;18.29;24.94;96104.16;5050055;28;20663;-74
2022/03/15 11:21:28;;;;;;;10.70;7.27;;;;;;;18.27;25.08;96093.16;5050497;28;20757;-75
2022/03/15 11:24:00;;;;;;;10.97;7.00;;;;;;;18.27;25.05;96100.91;5051189;28;20665;-72